createdAt,value
2023-04-28T00:02:27.449Z,19.88
2023-04-28T00:06:44.705Z,19.58
2023-04-28T00:11:01.980Z,19.10
2023-04-28T00:15:19.263Z,18.90
2023-04-28T00:19:38.730Z,19.67
2023-04-28T00:23:56.269Z,17.80
2023-04-28T00:28:18.329Z,18.92
2023-04-28T00:32:44.282Z,18.15
2023-04-28T00:37:01.577Z,18.73
2023-04-28T00:41:18.751Z,18.73
2023-04-28T00:45:36.368Z,18.05
2023-04-28T00:49:54.452Z,18.73
2023-04-28T00:54:14.267Z,18.58
2023-04-28T00:58:32.588Z,18.55
2023-04-28T01:02:52.583Z,17.27
2023-04-28T01:07:09.935Z,18.10
2023-04-28T01:11:27.330Z,19.02
2023-04-28T01:15:44.566Z,18.63
2023-04-28T01:20:01.800Z,17.52
2023-04-28T01:24:19.477Z,18.15
2023-04-28T01:28:36.827Z,19.03
2023-04-28T01:32:54.213Z,19.13
2023-04-28T01:37:11.588Z,18.50
2023-04-28T01:41:29.025Z,18.25
2023-04-28T01:45:46.282Z,19.30
2023-04-28T01:50:03.732Z,18.52
2023-04-28T01:54:21.115Z,18.35
2023-04-28T01:58:38.842Z,18.42
2023-04-28T02:02:56.182Z,18.23
2023-04-28T02:07:13.530Z,18.23
2023-04-28T02:11:30.779Z,18.92
2023-04-28T02:15:48.004Z,18.83
2023-04-28T02:20:06.385Z,17.00
2023-04-28T02:24:23.652Z,17.95
2023-04-28T02:28:41.125Z,17.60
2023-04-28T02:32:58.437Z,17.38
2023-04-28T02:37:15.920Z,16.60
2023-04-28T02:41:34.660Z,17.85
2023-04-28T02:45:52.193Z,17.50
2023-04-28T02:50:09.778Z,18.15
2023-04-28T02:54:30.190Z,17.58
2023-04-28T02:58:47.576Z,17.27
2023-04-28T03:03:05.352Z,17.13
2023-04-28T03:07:22.746Z,17.80
2023-04-28T03:11:41.584Z,18.70
2023-04-28T03:15:58.899Z,17.08
2023-04-28T03:20:16.277Z,17.33
2023-04-28T03:24:33.535Z,17.20
2023-04-28T03:28:51.209Z,18.40
2023-04-28T03:33:08.554Z,19.47
2023-04-28T03:37:26.589Z,19.85
2023-04-28T03:41:43.882Z,19.10
2023-04-28T03:46:01.582Z,17.83
2023-04-28T03:50:19.121Z,20.27
2023-04-28T03:54:36.403Z,17.33
2023-04-28T03:58:53.636Z,17.90
2023-04-28T04:03:11.234Z,18.30
2023-04-28T04:07:29.698Z,19.63
2023-04-28T04:11:47.416Z,20.70
2023-04-28T04:16:04.965Z,22.30
2023-04-28T04:20:22.102Z,22.33
2023-04-28T04:24:39.354Z,21.33
2023-04-28T04:28:56.731Z,20.77
2023-04-28T04:33:14.194Z,21.75
2023-04-28T04:37:31.790Z,20.60
2023-04-28T04:41:49.143Z,21.57
2023-04-28T04:46:06.801Z,21.58
2023-04-28T04:50:24.151Z,19.80
2023-04-28T04:54:42.653Z,21.52
2023-04-28T04:58:59.924Z,21.73
2023-04-28T05:03:17.491Z,21.40
2023-04-28T05:07:35.337Z,19.92
2023-04-28T05:11:53.385Z,20.55
2023-04-28T05:16:11.067Z,21.58
2023-04-28T05:20:28.902Z,21.20
2023-04-28T05:24:46.306Z,19.20
2023-04-28T05:29:03.937Z,20.45
2023-04-28T05:33:21.275Z,18.45
2023-04-28T05:37:38.708Z,20.20
2023-04-28T05:41:56.632Z,19.25
2023-04-28T05:46:28.141Z,17.80
2023-04-28T05:50:47.595Z,18.67
2023-04-28T05:55:05.345Z,18.58
2023-04-28T05:59:22.677Z,18.25
2023-04-28T06:03:42.039Z,18.85
2023-04-28T06:07:59.611Z,19.80
2023-04-28T06:12:17.308Z,19.38
2023-04-28T06:16:35.141Z,18.67
2023-04-28T06:20:52.554Z,18.13
2023-04-28T06:25:09.894Z,17.83
2023-04-28T06:29:28.137Z,17.38
2023-04-28T06:33:45.915Z,16.25
2023-04-28T06:38:04.686Z,16.40
2023-04-28T06:42:23.580Z,15.10
2023-04-28T06:46:41.545Z,16.60
2023-04-28T06:50:58.929Z,16.90
2023-04-28T06:55:20.040Z,16.58
2023-04-28T06:59:37.785Z,16.42
2023-04-28T07:03:57.292Z,16.27
2023-04-28T07:08:23.219Z,16.60
2023-04-28T07:12:43.512Z,16.17
2023-04-28T07:17:01.347Z,16.88
2023-04-28T07:21:18.946Z,17.60
2023-04-28T07:25:38.398Z,17.17
2023-04-28T07:29:56.037Z,17.70
2023-04-28T07:34:15.133Z,17.27
2023-04-28T07:38:35.006Z,16.67
2023-04-28T07:42:52.679Z,15.02
2023-04-28T07:47:10.678Z,11.68
2023-04-28T07:51:28.817Z,11.70
2023-04-28T07:55:46.245Z,9.53
2023-04-28T08:00:05.560Z,9.20
2023-04-28T08:04:23.197Z,8.18
2023-04-28T08:08:41.183Z,8.93
2023-04-28T08:12:58.613Z,13.13
2023-04-28T08:17:16.417Z,11.57
2023-04-28T08:21:34.335Z,8.68
2023-04-28T08:25:51.617Z,10.18
2023-04-28T08:30:10.383Z,6.75
2023-04-28T08:38:46.143Z,5.18
2023-04-28T08:43:03.472Z,5.00
2023-04-28T08:47:23.205Z,5.72
2023-04-28T08:51:47.865Z,5.90
2023-04-28T08:56:07.258Z,6.00
2023-04-28T09:00:25.121Z,6.13
2023-04-28T09:04:42.871Z,5.50
2023-04-28T09:09:32.491Z,5.63
2023-04-28T09:13:51.728Z,6.03
2023-04-28T09:18:15.833Z,5.50
2023-04-28T09:22:33.430Z,5.20
2023-04-28T09:26:51.221Z,6.97
2023-04-28T09:35:45.372Z,4.55
2023-04-28T09:40:10.563Z,5.07
2023-04-28T09:44:27.977Z,4.80
2023-04-28T09:48:46.259Z,5.40
2023-04-28T09:53:04.457Z,5.30
2023-04-28T09:57:22.473Z,5.57
2023-04-28T10:01:41.500Z,5.40
2023-04-28T10:05:59.760Z,6.47
2023-04-28T10:10:17.265Z,6.50
2023-04-28T10:14:35.407Z,6.32
2023-04-28T10:18:56.451Z,6.50
2023-04-28T10:23:40.352Z,6.82
2023-04-28T10:27:59.668Z,6.38
2023-04-28T10:32:19.050Z,5.97
2023-04-28T10:36:51.074Z,7.03
2023-04-28T10:41:32.334Z,7.00
2023-04-28T10:45:50.509Z,7.25
2023-04-28T10:50:11.529Z,8.02
2023-04-28T10:54:30.374Z,6.65
2023-04-28T11:03:08.513Z,6.72
2023-04-28T11:07:26.138Z,7.55
2023-04-28T11:12:06.219Z,7.88
2023-04-28T11:16:25.892Z,6.65
2023-04-28T11:20:50.874Z,8.02
2023-04-28T11:25:08.860Z,7.65
2023-04-28T11:29:35.336Z,6.97
2023-04-28T11:34:12.063Z,7.28
2023-04-28T11:38:29.489Z,6.85
2023-04-28T11:42:50.138Z,7.20
2023-04-28T11:47:07.888Z,6.63
2023-04-28T11:51:33.955Z,7.47
2023-04-28T11:56:08.080Z,7.75
2023-04-28T12:00:26.457Z,6.57
2023-04-28T12:04:45.385Z,6.80
2023-04-28T12:09:15.874Z,5.93
2023-04-28T12:13:33.569Z,5.97
2023-04-28T12:17:51.782Z,6.07
2023-04-28T12:22:09.738Z,6.75
2023-04-28T12:26:30.143Z,5.60
2023-04-28T12:30:50.510Z,5.78
2023-04-28T12:35:08.401Z,6.20
2023-04-28T12:39:27.060Z,5.97
2023-04-28T12:43:44.755Z,5.35
2023-04-28T12:48:02.476Z,5.30
2023-04-28T12:52:23.022Z,5.97
2023-04-28T12:56:40.327Z,6.32
2023-04-28T13:00:57.723Z,6.07
2023-04-28T13:05:15.097Z,5.35
2023-04-28T13:09:32.559Z,5.63
2023-04-28T13:13:49.992Z,4.95
2023-04-28T13:18:07.807Z,5.57
2023-04-28T13:22:25.171Z,5.30
2023-04-28T13:26:44.316Z,5.60
2023-04-28T13:31:01.548Z,5.18
2023-04-28T13:35:19.340Z,5.25
2023-04-28T13:39:37.231Z,4.90
2023-04-28T13:43:56.713Z,4.75
2023-04-28T13:48:14.139Z,4.80
2023-04-28T13:52:32.313Z,5.00
2023-04-28T13:56:49.968Z,4.77
2023-04-28T14:01:07.807Z,4.55
2023-04-28T14:05:26.093Z,4.30
2023-04-28T14:14:01.958Z,4.57
2023-04-28T14:18:20.238Z,4.38
2023-04-28T14:22:39.046Z,4.28
2023-04-28T14:26:57.601Z,5.00
2023-04-28T14:31:16.641Z,5.57
2023-04-28T14:35:35.086Z,4.70
2023-04-28T14:39:52.981Z,5.03
2023-04-28T14:44:12.240Z,4.53
2023-04-28T14:48:29.897Z,4.85
2023-04-28T14:52:48.821Z,4.28
2023-04-28T14:57:07.026Z,4.57
2023-04-28T15:01:26.732Z,4.70
2023-04-28T15:05:44.384Z,5.15
2023-04-28T15:10:01.991Z,5.13
2023-04-28T15:14:19.762Z,5.45
2023-04-28T15:18:36.992Z,5.43
2023-04-28T15:22:54.275Z,6.25
2023-04-28T15:27:11.681Z,5.03
2023-04-28T15:31:29.141Z,5.13
2023-04-28T15:35:50.091Z,5.55
2023-04-28T15:40:09.351Z,6.40
2023-04-28T15:44:27.665Z,5.70
2023-04-28T15:48:46.539Z,7.25
2023-04-28T15:53:03.797Z,5.90
2023-04-28T15:57:21.671Z,5.70
2023-04-28T16:01:39.017Z,5.95
2023-04-28T16:05:56.313Z,6.45
2023-04-28T16:10:16.298Z,7.00
2023-04-28T16:14:34.017Z,7.18
2023-04-28T16:18:51.973Z,6.68
2023-04-28T16:23:13.823Z,5.97
2023-04-28T16:27:32.256Z,6.43
2023-04-28T16:31:49.715Z,6.32
2023-04-28T16:36:07.061Z,6.07
2023-04-28T16:40:25.316Z,6.55
2023-04-28T16:44:42.904Z,6.20
2023-04-28T16:49:00.435Z,5.70
2023-04-28T16:53:19.006Z,5.80
2023-04-28T16:57:37.049Z,5.78
2023-04-28T17:01:54.318Z,5.73
2023-04-28T17:06:12.835Z,5.75
2023-04-28T17:10:30.718Z,5.13
2023-04-28T17:14:51.005Z,5.25
2023-04-28T17:19:08.345Z,5.03
2023-04-28T17:23:28.611Z,5.00
2023-04-28T17:27:46.079Z,5.30
2023-04-28T17:32:04.368Z,5.57
2023-04-28T17:36:29.092Z,5.28
2023-04-28T17:40:48.701Z,5.28
2023-04-28T17:45:07.982Z,4.90
2023-04-28T17:49:25.378Z,4.90
2023-04-28T17:53:42.709Z,5.05
2023-04-28T17:58:04.316Z,5.40
2023-04-28T18:02:22.115Z,5.35
2023-04-28T18:06:39.866Z,5.20
2023-04-28T18:10:58.020Z,4.95
2023-04-28T18:15:15.750Z,5.27
2023-04-28T18:19:33.398Z,4.93
2023-04-28T18:23:51.784Z,5.30
2023-04-28T18:28:10.697Z,5.00
2023-04-28T18:32:30.147Z,5.25
2023-04-28T18:36:47.510Z,5.07
2023-04-28T18:41:16.880Z,5.03
2023-04-28T18:45:41.188Z,5.88
2023-04-28T18:50:00.087Z,5.93
2023-04-28T18:54:17.719Z,6.15
2023-04-28T18:58:37.633Z,5.88
2023-04-28T19:02:55.001Z,7.20
2023-04-28T19:07:13.006Z,7.75
2023-04-28T19:11:30.929Z,7.17
2023-04-28T19:15:51.764Z,6.20
2023-04-28T19:20:09.433Z,7.03
2023-04-28T19:24:29.563Z,6.80
2023-04-28T19:28:46.931Z,7.28
2023-04-28T19:33:04.350Z,6.72
2023-04-28T19:37:22.440Z,7.13
2023-04-28T19:41:39.777Z,6.43
2023-04-28T19:45:57.915Z,6.93
2023-04-28T19:50:16.057Z,7.40
2023-04-28T19:54:33.483Z,7.47
2023-04-28T19:58:51.213Z,8.10
2023-04-28T20:03:09.162Z,7.47
2023-04-28T20:07:26.589Z,8.03
2023-04-28T20:11:43.765Z,7.90
2023-04-28T20:16:01.719Z,8.23
2023-04-28T20:20:19.028Z,8.87
2023-04-28T20:24:37.651Z,9.27
2023-04-28T20:28:55.059Z,10.57
2023-04-28T20:33:13.102Z,9.63
2023-04-28T20:37:30.594Z,11.43
2023-04-28T20:41:48.151Z,11.18
2023-04-28T20:46:10.299Z,12.63
2023-04-28T20:50:29.122Z,12.85
2023-04-28T20:59:04.490Z,12.65
2023-04-28T21:03:23.780Z,13.85
2023-04-28T21:07:41.102Z,13.30
2023-04-28T21:11:58.356Z,14.18
2023-04-28T21:16:20.434Z,13.90
2023-04-28T21:20:38.671Z,15.63
2023-04-28T21:24:56.255Z,14.60
2023-04-28T21:29:13.789Z,15.80
2023-04-28T21:33:31.539Z,17.02
2023-04-28T21:37:48.802Z,17.27
2023-04-28T21:42:08.158Z,16.15
2023-04-28T21:46:26.268Z,18.10
2023-04-28T21:50:43.532Z,19.37
2023-04-28T21:55:00.804Z,18.27
2023-04-28T21:59:18.441Z,17.63
2023-04-28T22:03:36.411Z,18.00
2023-04-28T22:07:54.069Z,18.30
2023-04-28T22:12:11.249Z,18.23
2023-04-28T22:16:28.805Z,18.17
2023-04-28T22:20:46.190Z,17.95
2023-04-28T22:25:03.522Z,18.30
2023-04-28T22:29:20.897Z,18.42
2023-04-28T22:33:38.849Z,19.30
2023-04-28T22:37:56.708Z,19.02
2023-04-28T22:42:14.521Z,19.13
2023-04-28T22:46:31.808Z,18.42
2023-04-28T22:50:49.523Z,17.48
2023-04-28T22:55:07.300Z,16.92
2023-04-28T22:59:24.702Z,17.80
2023-04-28T23:03:42.287Z,17.05
2023-04-28T23:07:59.808Z,16.27
2023-04-28T23:12:17.376Z,16.27
2023-04-28T23:16:34.660Z,16.58
2023-04-28T23:20:51.887Z,17.02
2023-04-28T23:25:09.512Z,15.38
2023-04-28T23:29:27.003Z,15.80
2023-04-28T23:33:44.539Z,17.25
2023-04-28T23:38:02.372Z,18.13
2023-04-28T23:42:19.849Z,19.00
2023-04-28T23:46:37.394Z,18.67
2023-04-28T23:50:54.913Z,18.65
2023-04-28T23:55:13.155Z,18.85
2023-04-28T23:59:30.963Z,17.50
